Latest Coastal Weather Observations for Cape Otway

IDV60701

Issued at 4:32 pm EST Tuesday 17 September 2019 (issued every 10 minutes, with the page automatically refreshed every 10 minutes)

About coastal observations | Map of coastal stations | Coastal observations for VIC | Marine services | Other Formats
Station Details ID: 090015 Name: CAPE OTWAY LIGHTHOUSE Lat: -38.86 Lon: 143.51 Height: 82.0 m
Data from the previous 72 hours. | See also: Recent months at Cape Otway
Date/Time
EST
Wind Sea
Height
m
Swell Vis
km
Cloud Weather Temp
°C
Press
hPa
Rain since
9am
mm
Dir  Spd
kts
Gust
kts
Height
m
Period
s
Dir
17/04:30pm SSE 5 9 - - - - - - - 10.6 1028.6 0.0
17/04:00pm SE 6 8 - - - - - - - 10.9 1028.6 0.0
17/03:30pm ESE 7 10 - - - - - - - 10.8 1028.8 0.0
17/03:00pm SE 6 9 - - - - - - - 11.2 1028.7 0.0
17/02:30pm SE 7 10 - - - - - - - 10.9 1028.7 0.0
17/02:00pm ESE 9 12 - - - - - - - 11.1 1028.7 0.0
17/01:30pm E 9 13 - - - - - - - 11.1 1028.8 0.0
17/01:00pm ESE 8 13 - - - - - - - 11.0 1029.0 0.0
17/12:30pm SE 7 10 - - - - - - - 10.2 1029.4 0.0
17/12:00pm ESE 9 11 - - - - - - - 10.2 1029.4 0.0
17/11:30am ESE 7 11 - - - - - - - 9.9 1029.5 0.0
17/11:00am SE 6 9 - - - - - - - 10.7 1029.7 0.0
17/10:30am SE 5 7 - - - - - - - 11.6 1029.5 0.0
17/10:00am ESE 6 8 - - - - - - - 10.8 1029.6 0.0
17/09:30am SSE 5 7 - - - - - - - 10.8 1029.5 0.0
17/09:00am SW 5 7 - - - - - - - 10.0 1029.4 0.8
17/08:30am ESE 5 8 - - - - - - - 9.5 1029.4 0.8
17/08:00am SSE 4 8 - - - - - - - 9.8 1029.2 0.8
17/07:30am E 4 7 - - - - - - - 8.3 1028.9 0.8
17/07:00am E 7 12 - - - - - - - 7.6 1028.5 0.8
17/06:30am NE 4 6 - - - - - - - 6.0 1028.3 0.8
17/06:00am NNE 4 5 - - - - - - - 6.4 1028.0 0.8
17/05:30am ESE 8 11 - - - - - - - 8.2 1027.5 0.8
17/05:00am WSW 4 7 - - - - - - - 8.4 1027.3 0.8
17/04:30am W 6 12 - - - - - - - 8.4 1027.0 0.8
17/04:00am WSW 5 9 - - - - - - - 8.1 1026.9 0.8
17/03:30am WSW 5 8 - - - - - - - 8.3 1027.0 0.8
17/03:00am WSW 5 10 - - - - - - - 8.2 1027.0 0.8
17/02:30am S 5 9 - - - - - - - 8.0 1027.1 0.8
17/02:00am SSW 6 10 - - - - - - - 8.1 1027.3 0.8
17/01:30am WSW 6 10 - - - - - - - 8.4 1027.2 0.8
17/01:00am SW 5 8 - - - - - - - 8.2 1027.7 0.8
17/12:30am SW 9 12 - - - - - - - 8.3 1027.8 0.8
17/12:00am SW 7 11 - - - - - - - 8.6 1027.7 0.8
 
Date/Time
EST
Wind Sea
Height
m
Swell Vis
km
Cloud Weather Temp
°C
Press
hPa
Rain since
9am
mm
Dir  Spd
kts
Gust
kts
Height
m
Period
s
Dir
16/11:30pm SW 5 10 - - - - - - - 8.3 1027.7 0.8
16/11:00pm S 4 7 - - - - - - - 7.3 1027.7 0.8
16/10:30pm SW 5 8 - - - - - - - 7.8 1027.7 0.8
16/10:00pm WSW 7 11 - - - - - - - 8.0 1027.4 0.8
16/09:30pm SSW 9 18 - - - - - - - 7.5 1027.7 0.6
16/09:00pm SW 9 13 - - - - - - - 8.6 1027.3 0.2
16/08:30pm SW 7 10 - - - - - - - 8.7 1026.8 0.2
16/08:00pm SSW 11 16 - - - - - - - 8.8 1026.7 0.2
16/07:30pm SW 7 12 - - - - - - - 8.8 1026.5 0.2
16/07:00pm SSW 10 15 - - - - - - - 8.8 1026.1 0.2
16/06:30pm SSW 10 16 - - - - - - - 8.8 1025.6 0.2
16/06:00pm SW 9 13 - - - - - - - 8.9 1025.2 0.2
16/05:30pm SSW 12 17 - - - - - - - 9.0 1024.9 0.2
16/05:00pm SSW 11 17 - - - - - - - 9.3 1024.6 0.2
16/04:30pm SW 10 15 - - - - - - - 9.2 1024.3 0.2
16/04:00pm SW 7 15 - - - - - - - 9.1 1024.1 0.2
16/03:30pm WSW 9 14 - - - - - - - 8.2 1024.0 0.2
16/03:12pm SSW 15 25 - - - - - - - 8.8 1023.7 0.2
16/03:00pm SSW 14 20 - - - - - - - 9.5 1023.5 0.2
16/02:30pm SSW 15 22 - - - - - - - 9.8 1023.5 0.2
16/02:00pm SSW 17 23 - - - - - - - 10.0 1023.2 0.2
16/01:30pm SSW 16 22 - - - - - - - 9.6 1022.8 0.2
16/01:00pm SSW 17 23 - - - - - - - 9.7 1022.7 0.2
16/12:30pm SSW 17 24 - - - - - - - 10.1 1022.6 0.2
16/12:00pm SSW 19 24 - - - - - - - 10.2 1022.6 0.2
16/11:30am SSW 16 23 - - - - - - - 10.2 1022.5 0.2
16/11:00am SSW 17 23 - - - - - - - 9.8 1022.3 0.2
16/10:35am SSW 20 30 - - - - - - - 8.4 1022.1 0.2
16/10:30am SSW 21 30 - - - - - - - 8.7 1021.7 0.0
16/10:26am SW 17 27 - - - - - - - 10.4 1022.0 0.0
16/10:00am SW 17 22 - - - - - - - 10.0 1022.0 0.0
16/09:30am SSW 17 24 - - - - - - - 9.9 1021.7 0.0
16/09:00am SSW 18 25 - - - - - - - 9.8 1021.0 9.6
16/08:30am SSW 13 20 - - - - - - - 9.5 1020.7 9.6
16/08:02am SSW 18 30 - - - - - - - 9.9 1020.1 9.6
16/08:00am SSW 18 24 - - - - - - - 9.9 1020.1 9.6
16/07:30am SSW 18 24 - - - - - - - 9.8 1019.9 9.6
16/07:05am SSW 17 27 - - - - - - - 9.9 1019.5 9.6
16/07:00am SW 18 27 - - - - - - - 9.8 1019.5 9.6
16/06:30am SSW 19 27 - - - - - - - 9.9 1018.9 9.6
16/06:00am SW 19 27 - - - - - - - 10.0 1018.6 9.6
16/05:30am SW 21 31 - - - - - - - 10.0 1018.2 9.6
16/05:29am SW 21 31 - - - - - - - 10.0 1018.2 9.6
16/05:00am SW 22 30 - - - - - - - 10.1 1017.8 9.6
16/04:30am SW 21 27 - - - - - - - 10.1 1017.6 9.6
16/04:07am SW 22 32 - - - - - - - 9.9 1017.3 9.6
16/04:00am SW 23 32 - - - - - - - 9.9 1017.3 9.6
16/03:30am SW 21 28 - - - - - - - 10.5 1016.9 9.6
16/03:00am SW 24 33 - - - - - - - 10.6 1016.3 9.6
16/02:30am WSW 21 31 - - - - - - - 10.8 1016.0 9.6
16/02:00am WSW 19 29 - - - - - - - 10.8 1016.2 9.6
16/01:30am W 19 30 - - - - - - - 10.7 1016.1 9.6
16/01:21am WSW 19 30 - - - - - - - 10.5 1016.0 9.6
16/01:00am W 19 28 - - - - - - - 11.1 1016.0 9.6
16/12:30am WSW 19 28 - - - - - - - 10.8 1015.8 9.6
16/12:18am WSW 19 29 - - - - - - - 10.9 1015.6 9.6
16/12:00am W 20 27 - - - - - - - 10.9 1015.6 9.6
 
Date/Time
EST
Wind Sea
Height
m
Swell Vis
km
Cloud Weather Temp
°C
Press
hPa
Rain since
9am
mm
Dir  Spd
kts
Gust
kts
Height
m
Period
s
Dir
15/11:30pm WSW 20 27 - - - - - - - 10.8 1015.6 9.6
15/11:00pm WSW 19 28 - - - - - - - 10.8 1015.7 9.6
15/10:38pm WSW 19 29 - - - - - - - 10.8 1015.3 9.6
15/10:30pm WSW 19 26 - - - - - - - 10.9 1015.2 9.6
15/10:00pm WNW 15 22 - - - - - - - 11.1 1015.4 9.6
15/09:30pm WNW 14 20 - - - - - - - 10.1 1015.0 9.6
15/09:00pm WNW 13 19 - - - - - - - 10.3 1015.5 9.4
15/08:30pm W 16 25 - - - - - - - 10.3 1015.3 9.4
15/08:00pm W 15 21 - - - - - - - 10.6 1014.7 9.4
15/07:30pm WSW 15 25 - - - - - - - 11.0 1014.4 9.4
15/07:24pm WSW 15 25 - - - - - - - 11.0 1014.3 9.4
15/07:00pm WSW 13 20 - - - - - - - 11.4 1013.8 9.2
15/06:30pm W 14 21 - - - - - - - 12.7 1013.4 9.2
15/06:14pm W 17 27 - - - - - - - 12.8 1013.6 9.0
15/06:00pm W 17 26 - - - - - - Rain 12.8 1013.9 7.8
15/05:30pm WNW 16 24 - - - - - - - 12.8 1013.5 6.6
15/05:00pm WNW 12 19 - - - - - - - 12.9 1013.3 4.4
15/04:30pm W 14 23 - - - - - - - 13.0 1012.9 3.2
15/04:00pm W 11 16 - - - - - - - 13.3 1012.3 2.8
15/03:30pm NW 12 21 - - - - - - - 14.8 1012.1 2.8
15/03:00pm WNW 15 22 - - - - - - Rain 13.2 1013.0 2.6
15/02:30pm WNW 13 21 - - - - - - - 14.1 1013.8 1.6
15/02:00pm WNW 12 18 - - - - - - - 14.4 1013.4 1.6
15/01:30pm W 12 17 - - - - - - - 14.3 1013.7 1.6
15/01:00pm W 11 18 - - - - - - - 15.8 1013.7 1.6
15/12:30pm W 10 15 - - - - - - - 15.0 1013.5 1.6
15/12:00pm NNW 14 19 - - - - - - Rain 15.8 1013.4 1.6
15/11:30am NNW 11 17 - - - - - - - 14.7 1013.9 1.4
15/11:00am NW 10 15 - - - - - - - 14.2 1015.2 0.0
15/10:30am WNW 12 16 - - - - - - - 15.0 1016.1 0.0
15/10:00am WNW 9 13 - - - - - - - 15.5 1016.4 0.0
15/09:30am WNW 7 11 - - - - - - - 14.9 1016.3 0.0
15/09:00am WNW 9 13 - - - - - - - 15.9 1016.2 1.4
15/08:30am NW 9 13 - - - - - - - 15.2 1016.1 1.4
15/08:00am WNW 12 18 - - - - - - - 15.7 1016.3 1.4
15/07:30am WNW 13 20 - - - - - - - 15.8 1016.2 1.4
15/07:00am NW 14 21 - - - - - - - 16.1 1015.9 1.4
15/06:30am NW 15 23 - - - - - - - 16.2 1015.8 1.4
15/06:00am NW 13 20 - - - - - - - 16.1 1015.7 1.4
15/05:30am NW 15 22 - - - - - - - 16.3 1015.8 1.4
15/05:00am NW 12 19 - - - - - - - 15.7 1015.4 1.4
15/04:30am NW 12 19 - - - - - - - 15.4 1015.5 1.4
15/04:00am NW 14 21 - - - - - - - 15.1 1015.3 1.4
15/03:30am NW 13 22 - - - - - - - 14.4 1015.5 1.4
15/03:00am NW 12 17 - - - - - - Rain 14.2 1016.1 1.4
15/02:30am NW 16 26 - - - - - - - 15.1 1016.9 0.6
15/02:21am NW 16 26 - - - - - - - 16.0 1017.1 0.2
15/02:00am NW 15 23 - - - - - - - 16.6 1017.0 0.2
15/01:36am NW 16 26 - - - - - - - 16.9 1017.1 0.2
15/01:30am NW 17 26 - - - - - - - 16.9 1017.2 0.2
15/01:00am NW 17 29 - - - - - - - 17.2 1017.6 0.2
15/12:36am NW 17 27 - - - - - - - 16.9 1018.0 0.2
15/12:30am NW 16 25 - - - - - - - 16.8 1018.1 0.2
15/12:21am NW 15 25 - - - - - - - 16.7 1018.1 0.2
15/12:00am NW 16 24 - - - - - - - 16.5 1017.8 0.2
 
Date/Time
EST
Wind Sea
Height
m
Swell Vis
km
Cloud Weather Temp
°C
Press
hPa
Rain since
9am
mm
Dir  Spd
kts
Gust
kts
Height
m
Period
s
Dir
14/11:30pm NW 18 28 - - - - - - - 16.3 1017.7 0.2
14/11:15pm NW 17 27 - - - - - - - 16.4 1018.1 0.2
14/11:00pm NW 18 26 - - - - - - - 15.7 1018.6 0.2
14/10:30pm NW 16 28 - - - - - - - 15.6 1019.2 0.2
14/10:13pm NW 15 25 - - - - - - - 16.1 1019.4 0.0
14/10:00pm NW 14 24 - - - - - - - 15.5 1019.7 0.0
14/09:30pm NW 13 22 - - - - - - - 16.2 1020.1 0.0
14/09:00pm NW 12 18 - - - - - - - 15.9 1020.1 0.0
14/08:30pm NW 10 15 - - - - - - - 15.3 1020.3 0.0
14/08:00pm NW 9 13 - - - - - - - 14.5 1020.1 0.0
14/07:30pm NW 6 8 - - - - - - - 12.8 1020.4 0.0
14/07:00pm W 6 7 - - - - - - - 12.4 1020.7 0.0
14/06:30pm NW 4 6 - - - - - - - 12.4 1020.7 0.0
14/06:00pm CALM 0 0 - - - - - - - 12.6 1021.2 0.0
14/05:30pm CALM 0 0 - - - - - - - 12.7 1021.0 0.0
14/05:00pm SW 4 5 - - - - - - - 13.3 1021.6 0.0

Other formats

Comma delimited format used in spreadsheet applications
http://www.bom.gov.au/fwo/IDV60701/IDV60701.94842.axf

JavaScript Object Notation format (JSON) in row-major order
http://www.bom.gov.au/fwo/IDV60701/IDV60701.94842.json

Data quality

Most of these data are generated automatically and are frequently updated. Quality checks on data are not normally performed. It is possible for incorrect values to appear. Refer to information at About Latest Weather Observations and please check the disclaimer before using these data.